Aubrey, TX

3:59 PM CDT on April 18, 2015 (GMT -0500)
Nipe Ranch | | Change Station
CLOSE
Current Station
Personal Weather Station
Location: Krugerville, TX
Elevation: 666 ft
Nearby Weather Stations

Elev 666 ft 33.27 °N, 96.99 °W | Updated 3 minutes ago

Partly Cloudy
Partly Cloudy
80.1 °F
Feels Like 82 °F
N
2.0
Wind Variable Wind from East
Gusts 4.0 mph

Today
High -- | Low -- °F
--% Chance of Precip.
Yesterday
High -- | Low -- °F
Precip. -- in
6:54 AM 8:00 PM
New Moon, 0% visible
Pressure 29.75 in
Visibility 10.0 miles
Clouds Few 4200 ft
Heat Index 82 °F
Dew Point 64 °F
Humidity 57%
Rainfall 0.00 in
Snow Depth Not available.
UV 7 out of 12
Pollen 8.20 out of 12
Air Quality Not available.
Flu Activity Local Activity
METAR KDTO 182053Z 10007KT 10SM FEW042 26/17 A2977 RMK AO2 SLP074 T02560172 58038

More Conditions Fewer Conditions

Pressure 29.75 in
Visibility 10.0 miles
Clouds Few 4200 ft
Heat Index 82 °F
Dew Point 64 °F
Humidity 57%
Rainfall 0.00 in
Snow Depth Not available.
UV 7 out of 12
Pollen 8.20 out of 12
Air Quality Not available.
Flu Activity Local Activity
METAR KDTO 182053Z 10007KT 10SM FEW042 26/17 A2977 RMK AO2 SLP074 T02560172 58038

More Conditions Fewer Conditions

Nowcast | as of 1:56 PM CDT on April 18, 2015

Isolated thunderstorms have begun to pop up over southeast counties...near the Palestine and Athens areas. Cells are moving slowly east...and will produce cloud to ground lightning and brief heavy rain this afternoon. Additional showers and thunderstorms are currently developing just west of the region...in the Abilene and San Angelo areas. This activity will spread east across North Texas late this afternoon and this evening. Some of these storms may become severe...with large hail and damaging winds. Brief heavy rain and cloud to ground lightning will accompany these storms as well.

×

10-Day Weather Forecast

Almanac

Astronomy

Apr. 18, 2015 Rise Set
Actual Time
Civil Twilight
Nautical Twilight
Astronomical Twilight
Moon
Length of Visible Light
Length of Day
Tomorrow will be .
, % of the Moon is Illuminated

Today's Extremes

State Highs State Lows

Community

WunderPhotos

Upload Photos

1,814,525 photos uploaded!

WunderBlogs® & News

Nearby

Air Quality

  Air Quality AQ Index Pollutant
Not available.

Snow Depth

Station Depth Elevation

Earthquake Activity

City Distance Mag. Time & Date
Minimum magnitude displayed is 2.5.

Coastal Water Temperatures

Place Temperature

Stations

Nearby Weather Stations

Station Location Temp. Windchill Dew Point Humidity Wind Precip. Elev Updated Type